Time;durP1;ratioP1;P1;durP2;ratioP2;P2;SDS_P1;SDS_P2;PMS_P1;PMS_P2;Temp;Humidity;BMP_temperature;BMP_pressure;BME280_temperature;BME280_humidity;BME280_pressure;Samples;Min_cycle;Max_cycle;Signal;HPM_P1;HPM_P2
2022/11/22 00:01:15;;;;;;;30.52;20.25;;;;;;;;;;5013417;28;20404;-73
2022/11/22 00:03:42;;;;;;;34.25;20.23;;;;;;;;;;5012638;28;20416;-73
2022/11/22 00:06:08;;;;;;;35.80;21.33;;;;;;;;;;5009513;28;20049;-74
2022/11/22 00:08:34;;;;;;;34.03;20.83;;;;;;;;;;5001680;28;20057;-73
2022/11/22 00:11:00;;;;;;;34.22;20.48;;;;;;;;;;5011556;28;20073;-73
2022/11/22 00:13:26;;;;;;;33.15;20.70;;;;;;;;;;5008426;28;20049;-73
2022/11/22 00:15:59;;;;;;;34.53;21.38;;;;;;;;;;5008669;28;20389;-73
2022/11/22 00:18:25;;;;;;;31.00;19.88;;;;;;;;;;5002712;28;20096;-73
2022/11/22 00:20:51;;;;;;;36.63;21.33;;;;;;;;;;4988108;28;20189;-73
2022/11/22 00:23:17;;;;;;;31.92;20.17;;;;;;;;;;5009642;28;20513;-73
2022/11/22 00:25:44;;;;;;;36.47;22.10;;;;;;;;;;4997220;28;20045;-73
2022/11/22 00:28:10;;;;;;;35.60;20.92;;;;;;;;;;5011776;28;20048;-73
2022/11/22 00:30:36;;;;;;;38.63;22.10;;;;;;;;;;5009683;28;20150;-73
2022/11/22 00:33:03;;;;;;;34.35;20.55;;;;;;;;;;5009524;28;20068;-73
2022/11/22 00:35:29;;;;;;;32.65;20.08;;;;;;;;;;5010636;28;20053;-73
2022/11/22 00:37:55;;;;;;;34.65;20.55;;;;;;;;;;5010095;28;20053;-73
2022/11/22 00:40:21;;;;;;;34.30;21.40;;;;;;;;;;4985255;28;20046;-73
2022/11/22 00:42:47;;;;;;;38.95;22.30;;;;;;;;;;5011675;28;20042;-73
2022/11/22 00:45:13;;;;;;;32.72;19.83;;;;;;;;;;4992518;28;20046;-73
2022/11/22 00:47:39;;;;;;;35.97;21.52;;;;;;;;;;5006838;28;20038;-73
2022/11/22 00:50:05;;;;;;;37.85;21.40;;;;;;;;;;5009596;28;20034;-73
2022/11/22 00:52:31;;;;;;;35.50;20.33;;;;;;;;;;5010639;28;20060;-73
2022/11/22 00:54:57;;;;;;;35.78;21.15;;;;;;;;;;5011415;28;20057;-73
2022/11/22 00:57:23;;;;;;;35.22;22.70;;;;;;;;;;5010426;28;20048;-73
2022/11/22 00:59:49;;;;;;;38.15;21.75;;;;;;;;;;5009949;28;20049;-73
2022/11/22 01:02:15;;;;;;;36.33;21.33;;;;;;;;;;5001380;28;20070;-73
2022/11/22 01:04:41;;;;;;;37.65;21.92;;;;;;;;;;5008536;28;20034;-73
2022/11/22 01:07:07;;;;;;;37.00;20.77;;;;;;;;;;5001973;28;20084;-73
2022/11/22 01:09:33;;;;;;;33.67;20.50;;;;;;;;;;5002414;28;20053;-73
2022/11/22 01:11:59;;;;;;;36.78;22.05;;;;;;;;;;5003557;28;20587;-73
2022/11/22 01:14:25;;;;;;;37.17;21.55;;;;;;;;;;5003018;28;20475;-72
2022/11/22 01:16:51;;;;;;;35.85;22.27;;;;;;;;;;5000800;28;20103;-73
2022/11/22 01:19:18;;;;;;;32.08;20.80;;;;;;;;;;5004702;28;20046;-73
2022/11/22 01:21:44;;;;;;;34.45;21.63;;;;;;;;;;5005042;28;20045;-73
2022/11/22 01:24:10;;;;;;;36.72;21.08;;;;;;;;;;5006574;28;20069;-73
2022/11/22 01:26:36;;;;;;;32.42;20.52;;;;;;;;;;5005929;28;20038;-73
2022/11/22 01:29:02;;;;;;;34.75;21.40;;;;;;;;;;5005998;28;20057;-73
2022/11/22 01:31:29;;;;;;;31.05;20.27;;;;;;;;;;5004914;28;20440;-74
2022/11/22 01:33:55;;;;;;;34.28;21.05;;;;;;;;;;5006199;28;20361;-73
2022/11/22 01:36:21;;;;;;;31.90;20.42;;;;;;;;;;5010632;28;20042;-73
2022/11/22 01:38:47;;;;;;;33.00;21.58;;;;;;;;;;5014754;28;20492;-73
2022/11/22 01:41:13;;;;;;;31.77;19.98;;;;;;;;;;5014023;28;20096;-72
2022/11/22 01:43:39;;;;;;;31.98;21.25;;;;;;;;;;5014428;28;20046;-72
2022/11/22 01:46:24;;;;;;;33.80;20.95;;;;;;;;;;5012521;28;20064;-73
2022/11/22 01:49:08;;;;;;;31.27;19.55;;;;;;;;;;5010097;28;20525;-73
2022/11/22 01:51:39;;;;;;;30.95;19.50;;;;;;;;;;5005108;28;20039;-73
2022/11/22 01:54:11;;;;;;;32.00;20.85;;;;;;;;;;5013595;28;20049;-73
2022/11/22 01:56:38;;;;;;;31.85;20.80;;;;;;;;;;5012905;28;20041;-73
2022/11/22 01:59:07;;;;;;;34.38;21.33;;;;;;;;;;5015061;28;20123;-73
2022/11/22 02:01:34;;;;;;;30.77;20.13;;;;;;;;;;5010076;28;20050;-73
2022/11/22 02:04:01;;;;;;;34.45;21.52;;;;;;;;;;5012097;28;20045;-72
2022/11/22 02:06:35;;;;;;;35.40;21.67;;;;;;;;;;5009660;28;20034;-73
2022/11/22 02:09:13;;;;;;;34.85;22.05;;;;;;;;;;5011082;28;20046;-73
2022/11/22 02:11:42;;;;;;;32.75;21.70;;;;;;;;;;5012749;28;20057;-72
2022/11/22 02:14:09;;;;;;;31.10;20.98;;;;;;;;;;5014071;28;20404;-73
2022/11/22 02:16:35;;;;;;;32.78;21.95;;;;;;;;;;5011226;28;20069;-73
2022/11/22 02:19:01;;;;;;;31.85;18.80;;;;;;;;;;5012673;28;20107;-73
2022/11/22 02:21:28;;;;;;;31.55;20.85;;;;;;;;;;5013729;28;20050;-73
2022/11/22 02:24:14;;;;;;;35.78;22.20;;;;;;;;;;5013436;28;20050;-73
2022/11/22 02:26:40;;;;;;;33.15;20.90;;;;;;;;;;5012936;28;20046;-72
2022/11/22 02:29:07;;;;;;;32.10;19.55;;;;;;;;;;5040378;22;20079;-83
2022/11/22 02:31:41;;;;;;;34.05;20.60;;;;;;;;;;5024826;28;20409;-82
2022/11/22 02:34:07;;;;;;;37.85;22.13;;;;;;;;;;5030290;28;21345;-83
2022/11/22 02:36:37;;;;;;;34.70;21.63;;;;;;;;;;5031586;28;20071;-83
2022/11/22 02:39:03;;;;;;;35.30;21.40;;;;;;;;;;5032347;28;20069;-83
2022/11/22 02:41:29;;;;;;;35.28;21.15;;;;;;;;;;5032375;28;20041;-83
2022/11/22 02:43:55;;;;;;;34.70;21.83;;;;;;;;;;5033226;28;20156;-83
2022/11/22 02:46:22;;;;;;;32.63;19.95;;;;;;;;;;5031056;28;20037;-83
2022/11/22 02:48:49;;;;;;;35.10;20.67;;;;;;;;;;5033729;28;20052;-83
2022/11/22 02:51:18;;;;;;;34.20;21.05;;;;;;;;;;5030971;28;20469;-82
2022/11/22 02:53:44;;;;;;;32.20;20.85;;;;;;;;;;5028887;28;20095;-83
2022/11/22 02:56:10;;;;;;;36.92;21.85;;;;;;;;;;5032218;28;20053;-83
2022/11/22 02:58:36;;;;;;;34.28;20.98;;;;;;;;;;5010550;28;20049;-83
2022/11/22 03:01:02;;;;;;;36.03;21.60;;;;;;;;;;5022124;28;20049;-83
2022/11/22 03:03:28;;;;;;;32.95;20.77;;;;;;;;;;5026381;28;20489;-83
2022/11/22 03:05:54;;;;;;;33.95;20.08;;;;;;;;;;5025996;28;20531;-83
2022/11/22 03:08:20;;;;;;;35.53;21.90;;;;;;;;;;5032580;28;20493;-83
2022/11/22 03:10:46;;;;;;;35.53;21.15;;;;;;;;;;4997575;28;20049;-83
2022/11/22 03:13:12;;;;;;;31.77;20.70;;;;;;;;;;5007113;28;20108;-83
2022/11/22 03:15:39;;;;;;;33.08;20.20;;;;;;;;;;4994729;28;20056;-83
2022/11/22 03:18:05;;;;;;;33.22;20.38;;;;;;;;;;5011858;28;20050;-83
2022/11/22 03:20:32;;;;;;;35.13;21.20;;;;;;;;;;4994545;28;20045;-83
2022/11/22 03:22:59;;;;;;;35.53;22.00;;;;;;;;;;5012627;28;20050;-83
2022/11/22 03:25:25;;;;;;;34.85;22.48;;;;;;;;;;5012876;28;20038;-83
2022/11/22 03:27:51;;;;;;;35.15;20.98;;;;;;;;;;5012245;28;20062;-83
2022/11/22 03:30:17;;;;;;;33.28;21.40;;;;;;;;;;5013026;28;20108;-83
2022/11/22 03:32:43;;;;;;;31.70;20.48;;;;;;;;;;5012267;28;20046;-83
2022/11/22 03:35:09;;;;;;;36.85;21.20;;;;;;;;;;4994275;28;20057;-84
2022/11/22 03:37:36;;;;;;;34.03;20.60;;;;;;;;;;5010484;28;20073;-83
2022/11/22 03:40:02;;;;;;;35.78;21.33;;;;;;;;;;5011297;28;20517;-83
2022/11/22 03:42:28;;;;;;;37.22;21.60;;;;;;;;;;4991792;28;20486;-84
2022/11/22 03:44:54;;;;;;;38.35;21.40;;;;;;;;;;4991565;28;20050;-84
2022/11/22 03:47:20;;;;;;;35.17;20.60;;;;;;;;;;5013260;28;20058;-83
2022/11/22 03:49:46;;;;;;;40.08;22.45;;;;;;;;;;4993520;28;20053;-84
2022/11/22 03:52:12;;;;;;;39.92;21.38;;;;;;;;;;4995316;28;20049;-84
2022/11/22 03:54:38;;;;;;;38.42;22.13;;;;;;;;;;5011294;28;20048;-84
2022/11/22 03:57:04;;;;;;;38.65;21.05;;;;;;;;;;4993521;28;20069;-83
2022/11/22 03:59:30;;;;;;;39.92;22.52;;;;;;;;;;5011206;28;20037;-84
2022/11/22 04:01:56;;;;;;;38.10;22.25;;;;;;;;;;4993066;28;20043;-83
2022/11/22 04:04:22;;;;;;;34.13;20.25;;;;;;;;;;4991544;28;20045;-84
2022/11/22 04:06:48;;;;;;;32.20;20.85;;;;;;;;;;5010872;28;20053;-84
2022/11/22 04:09:14;;;;;;;32.03;20.27;;;;;;;;;;4994323;28;20057;-83
2022/11/22 04:11:40;;;;;;;34.50;20.70;;;;;;;;;;5010538;28;20046;-83
2022/11/22 04:16:51;;;;;;;31.35;18.83;;;;;;;;;;4992985;28;20057;-84
2022/11/22 04:19:17;;;;;;;36.03;20.52;;;;;;;;;;5012337;28;20056;-83
2022/11/22 04:21:43;;;;;;;35.05;21.13;;;;;;;;;;4993319;28;20604;-84
2022/11/22 04:26:56;;;;;;;34.70;19.88;;;;;;;;;;4995618;28;20493;-83
2022/11/22 04:29:22;;;;;;;32.47;19.98;;;;;;;;;;5010899;28;20053;-83
2022/11/22 04:34:34;;;;;;;31.92;19.42;;;;;;;;;;5011805;28;20045;-83
2022/11/22 04:37:01;;;;;;;36.50;21.02;;;;;;;;;;5012233;28;20045;-84
2022/11/22 04:39:27;;;;;;;32.42;18.92;;;;;;;;;;5011878;28;20662;-84
2022/11/22 04:44:41;;;;;;;35.05;20.80;;;;;;;;;;4992411;28;20481;-84
2022/11/22 04:47:11;;;;;;;31.33;19.77;;;;;;;;;;4992779;28;20042;-84
2022/11/22 04:49:37;;;;;;;35.65;20.63;;;;;;;;;;5010889;28;20046;-84
2022/11/22 04:54:49;;;;;;;35.03;19.30;;;;;;;;;;4993941;28;20046;-84
2022/11/22 04:57:15;;;;;;;37.00;20.65;;;;;;;;;;5015819;28;20060;-84
2022/11/22 04:59:41;;;;;;;32.70;19.70;;;;;;;;;;5013248;28;20049;-84
2022/11/22 05:02:07;;;;;;;32.88;18.85;;;;;;;;;;5012840;28;20045;-83
2022/11/22 05:04:33;;;;;;;33.22;19.70;;;;;;;;;;5012067;28;20038;-84
2022/11/22 05:06:59;;;;;;;36.67;20.45;;;;;;;;;;5012442;28;20133;-84
2022/11/22 05:09:25;;;;;;;32.15;19.08;;;;;;;;;;5015392;28;20046;-84
2022/11/22 05:11:52;;;;;;;34.88;19.70;;;;;;;;;;4996874;28;20042;-84
2022/11/22 05:14:18;;;;;;;32.97;20.30;;;;;;;;;;4985387;28;20107;-84
2022/11/22 05:16:44;;;;;;;34.58;20.95;;;;;;;;;;5014632;28;20054;-84
2022/11/22 05:19:10;;;;;;;37.28;21.13;;;;;;;;;;5014916;28;20046;-84
2022/11/22 05:21:36;;;;;;;35.03;20.35;;;;;;;;;;4997739;28;20050;-83
2022/11/22 05:24:02;;;;;;;33.65;19.95;;;;;;;;;;5016034;28;20501;-84
2022/11/22 05:26:33;;;;;;;32.15;20.17;;;;;;;;;;4995913;28;20409;-83
2022/11/22 05:29:02;;;;;;;39.20;21.43;;;;;;;;;;5008344;28;20058;-84
2022/11/22 05:31:28;;;;;;;34.88;20.23;;;;;;;;;;5013431;28;20493;-84
2022/11/22 05:33:56;;;;;;;34.53;19.95;;;;;;;;;;5013764;28;20497;-83
2022/11/22 05:36:22;;;;;;;32.72;20.30;;;;;;;;;;4987316;28;20052;-84
2022/11/22 05:38:49;;;;;;;34.30;20.60;;;;;;;;;;5012373;28;20042;-83
2022/11/22 05:41:15;;;;;;;38.53;21.95;;;;;;;;;;4998216;28;20046;-84
2022/11/22 05:43:41;;;;;;;36.72;20.55;;;;;;;;;;5014115;28;20038;-83
2022/11/22 05:46:11;;;;;;;37.28;20.38;;;;;;;;;;5013613;28;20147;-84
2022/11/22 05:48:39;;;;;;;33.08;20.02;;;;;;;;;;5013081;28;20049;-83
2022/11/22 05:51:06;;;;;;;35.38;19.88;;;;;;;;;;5014271;28;20046;-83
2022/11/22 05:53:32;;;;;;;36.53;21.60;;;;;;;;;;5014422;28;20567;-84
2022/11/22 05:55:58;;;;;;;45.17;22.52;;;;;;;;;;5015340;28;20042;-84
2022/11/22 05:58:24;;;;;;;36.40;19.70;;;;;;;;;;5012510;28;20044;-83
2022/11/22 06:00:50;;;;;;;36.13;19.45;;;;;;;;;;5009697;28;20045;-84
2022/11/22 06:03:16;;;;;;;39.20;20.00;;;;;;;;;;5012850;28;20046;-84
2022/11/22 06:05:42;;;;;;;34.63;19.88;;;;;;;;;;5008005;28;20101;-84
2022/11/22 06:08:08;;;;;;;36.00;20.52;;;;;;;;;;5014118;28;20046;-84
2022/11/22 06:10:36;;;;;;;36.78;19.60;;;;;;;;;;4998456;28;20084;-84
2022/11/22 06:13:02;;;;;;;33.30;19.23;;;;;;;;;;5012076;28;20050;-84
2022/11/22 06:15:29;;;;;;;34.72;19.52;;;;;;;;;;5006959;28;20042;-83
2022/11/22 06:17:55;;;;;;;34.00;20.65;;;;;;;;;;5007148;28;20413;-84
2022/11/22 06:20:21;;;;;;;36.53;21.38;;;;;;;;;;5013049;28;20041;-84
2022/11/22 06:22:47;;;;;;;30.98;20.30;;;;;;;;;;5014072;28;20057;-84
2022/11/22 06:25:13;;;;;;;32.28;20.10;;;;;;;;;;5013053;28;20054;-84
2022/11/22 06:27:39;;;;;;;33.67;18.73;;;;;;;;;;5011315;28;20069;-83
2022/11/22 06:30:06;;;;;;;32.85;19.65;;;;;;;;;;5009302;28;20045;-83
2022/11/22 06:32:33;;;;;;;35.08;20.63;;;;;;;;;;5014794;28;20046;-84
2022/11/22 06:34:59;;;;;;;35.15;19.98;;;;;;;;;;5012773;28;20046;-83
2022/11/22 06:37:25;;;;;;;33.55;19.73;;;;;;;;;;5013859;28;20477;-83
2022/11/22 06:39:51;;;;;;;36.28;20.88;;;;;;;;;;5013746;28;20050;-84
2022/11/22 06:42:17;;;;;;;31.52;19.90;;;;;;;;;;5000869;28;20046;-83
2022/11/22 06:44:43;;;;;;;36.28;19.88;;;;;;;;;;5012867;28;20034;-83
2022/11/22 06:47:09;;;;;;;36.92;21.23;;;;;;;;;;5010532;28;20398;-84
2022/11/22 06:49:35;;;;;;;36.50;20.67;;;;;;;;;;5012008;28;20489;-84
2022/11/22 06:52:01;;;;;;;38.08;20.67;;;;;;;;;;4995434;28;20096;-83
2022/11/22 06:54:27;;;;;;;35.17;20.23;;;;;;;;;;4995467;28;20054;-84
2022/11/22 06:56:53;;;;;;;32.33;17.45;;;;;;;;;;5010959;28;20050;-84
2022/11/22 06:59:19;;;;;;;36.92;18.83;;;;;;;;;;4994308;28;20049;-83
2022/11/22 07:01:45;;;;;;;35.35;20.52;;;;;;;;;;4989183;28;20073;-83
2022/11/22 07:04:11;;;;;;;38.35;20.17;;;;;;;;;;4997848;28;20177;-83
2022/11/22 07:06:38;;;;;;;31.90;19.25;;;;;;;;;;4993950;28;20493;-83
2022/11/22 07:09:06;;;;;;;34.03;19.42;;;;;;;;;;4990964;28;20497;-83
2022/11/22 07:11:32;;;;;;;36.63;19.88;;;;;;;;;;5012397;28;20076;-83
2022/11/22 07:13:59;;;;;;;37.28;19.58;;;;;;;;;;5010876;28;20121;-83
2022/11/22 07:16:25;;;;;;;36.08;19.33;;;;;;;;;;4992779;28;20042;-83
2022/11/22 07:18:52;;;;;;;36.05;19.33;;;;;;;;;;4990832;28;20053;-83
2022/11/22 07:21:19;;;;;;;32.92;18.40;;;;;;;;;;5011743;28;20060;-83
2022/11/22 07:23:46;;;;;;;37.97;18.80;;;;;;;;;;5010745;28;20053;-83
2022/11/22 07:26:13;;;;;;;35.78;18.02;;;;;;;;;;4977342;28;20056;-83
2022/11/22 07:28:40;;;;;;;33.38;18.40;;;;;;;;;;5011610;28;20401;-83
2022/11/22 07:31:07;;;;;;;33.80;17.50;;;;;;;;;;5012539;28;20509;-83
2022/11/22 07:33:33;;;;;;;32.35;17.23;;;;;;;;;;4992589;28;20041;-83
2022/11/22 07:36:12;;;;;;;41.15;19.90;;;;;;;;;;5007119;28;20065;-83
2022/11/22 07:38:38;;;;;;;39.60;17.73;;;;;;;;;;5010409;28;20050;-83
2022/11/22 07:41:04;;;;;;;33.42;17.30;;;;;;;;;;5006890;28;20034;-84
2022/11/22 07:43:31;;;;;;;29.00;16.45;;;;;;;;;;5010304;28;20116;-84
2022/11/22 07:46:00;;;;;;;28.92;14.07;;;;;;;;;;5012417;28;20420;-83
2022/11/22 07:48:26;;;;;;;32.40;16.67;;;;;;;;;;4995659;28;20132;-83
2022/11/22 07:50:52;;;;;;;30.27;15.13;;;;;;;;;;5013242;28;20061;-83
2022/11/22 07:53:18;;;;;;;35.10;14.30;;;;;;;;;;5011385;28;20061;-83
2022/11/22 07:55:44;;;;;;;31.58;14.25;;;;;;;;;;5012610;28;20046;-84
2022/11/22 07:58:10;;;;;;;25.40;13.25;;;;;;;;;;5013708;28;20405;-83
2022/11/22 08:00:36;;;;;;;22.25;12.35;;;;;;;;;;4996088;28;20107;-84
2022/11/22 08:03:02;;;;;;;23.50;12.35;;;;;;;;;;5011939;28;20056;-83
2022/11/22 08:05:29;;;;;;;26.98;11.30;;;;;;;;;;5005750;28;20398;-83
2022/11/22 08:07:55;;;;;;;26.60;11.52;;;;;;;;;;5013533;28;20048;-84
2022/11/22 08:10:21;;;;;;;30.38;10.75;;;;;;;;;;5012229;28;20050;-83
2022/11/22 08:12:47;;;;;;;25.02;9.85;;;;;;;;;;5012644;28;20042;-84
2022/11/22 08:15:14;;;;;;;29.92;10.15;;;;;;;;;;5012408;28;20497;-83
2022/11/22 08:17:41;;;;;;;26.33;8.48;;;;;;;;;;5005855;28;20125;-83
2022/11/22 08:20:11;;;;;;;26.75;9.88;;;;;;;;;;5010876;28;20444;-83
2022/11/22 08:22:39;;;;;;;22.90;8.18;;;;;;;;;;4998059;28;20137;-83
2022/11/22 08:25:11;;;;;;;24.17;7.57;;;;;;;;;;5014740;28;20050;-83
2022/11/22 08:27:37;;;;;;;20.67;6.93;;;;;;;;;;4996743;28;20108;-83
2022/11/22 08:30:03;;;;;;;22.30;6.57;;;;;;;;;;5008546;28;20053;-83
2022/11/22 08:32:29;;;;;;;23.35;7.10;;;;;;;;;;5017499;28;20488;-83
2022/11/22 08:34:55;;;;;;;18.58;5.97;;;;;;;;;;5018476;28;20516;-83
2022/11/22 08:37:21;;;;;;;21.85;5.85;;;;;;;;;;5018182;28;20405;-83
2022/11/22 08:39:47;;;;;;;16.42;5.15;;;;;;;;;;5014346;28;20044;-83
2022/11/22 08:42:13;;;;;;;18.52;5.07;;;;;;;;;;5018451;28;20053;-83
2022/11/22 08:44:39;;;;;;;19.77;5.05;;;;;;;;;;5018387;28;20042;-83
2022/11/22 08:47:05;;;;;;;19.70;4.82;;;;;;;;;;5018565;28;20046;-83
2022/11/22 08:49:31;;;;;;;20.70;4.95;;;;;;;;;;5019242;28;20103;-83
2022/11/22 08:51:57;;;;;;;22.50;4.80;;;;;;;;;;5018278;28;20069;-83
2022/11/22 08:54:23;;;;;;;19.65;4.97;;;;;;;;;;5000367;28;20129;-81
2022/11/22 08:56:49;;;;;;;21.65;4.35;;;;;;;;;;4996229;28;20042;-81
2022/11/22 08:59:15;;;;;;;16.60;3.80;;;;;;;;;;5017061;28;20042;-82
2022/11/22 09:01:41;;;;;;;18.48;3.80;;;;;;;;;;5024801;28;20049;-81
2022/11/22 09:04:07;;;;;;;17.95;3.90;;;;;;;;;;4997929;28;20049;-81
2022/11/22 09:06:33;;;;;;;23.13;4.32;;;;;;;;;;5019143;28;20056;-81
2022/11/22 09:09:00;;;;;;;20.10;3.97;;;;;;;;;;5019704;28;20065;-81
2022/11/22 09:11:26;;;;;;;17.10;3.90;;;;;;;;;;5014715;28;20050;-84
2022/11/22 09:13:52;;;;;;;18.80;4.95;;;;;;;;;;5016053;28;20056;-81
2022/11/22 09:16:19;;;;;;;18.33;3.85;;;;;;;;;;5019435;28;20501;-81
2022/11/22 09:18:45;;;;;;;21.27;3.97;;;;;;;;;;5000081;28;20041;-81
2022/11/22 09:21:14;;;;;;;20.75;4.00;;;;;;;;;;4998160;28;20098;-82
2022/11/22 09:23:42;;;;;;;18.05;4.43;;;;;;;;;;5007328;28;20037;-81
2022/11/22 09:26:10;;;;;;;21.00;3.92;;;;;;;;;;5019255;28;20066;-81
2022/11/22 09:28:36;;;;;;;19.23;4.00;;;;;;;;;;5017995;28;20057;-81
2022/11/22 09:31:22;;;;;;;15.52;3.38;;;;;;;;;;5018022;28;20374;-82
2022/11/22 09:33:49;;;;;;;19.42;4.15;;;;;;;;;;5015586;28;20121;-81
2022/11/22 09:36:25;;;;;;;19.65;4.55;;;;;;;;;;5012746;28;20496;-82
2022/11/22 09:38:51;;;;;;;15.88;3.60;;;;;;;;;;5016039;28;20467;-82
2022/11/22 09:41:20;;;;;;;16.27;3.70;;;;;;;;;;5017442;28;20133;-82
2022/11/22 09:43:46;;;;;;;17.77;3.75;;;;;;;;;;5010061;28;20050;-82
2022/11/22 09:46:16;;;;;;;13.90;3.58;;;;;;;;;;5009296;28;20147;-82
2022/11/22 09:49:03;;;;;;;15.80;3.63;;;;;;;;;;5014361;28;20042;-82
2022/11/22 09:51:33;;;;;;;15.80;3.88;;;;;;;;;;5013377;28;20092;-81
2022/11/22 09:54:04;;;;;;;16.38;3.53;;;;;;;;;;4995765;28;20057;-82
2022/11/22 09:56:32;;;;;;;15.60;3.15;;;;;;;;;;5015536;28;20042;-82
2022/11/22 09:59:01;;;;;;;18.20;3.50;;;;;;;;;;5015682;28;20046;-82
2022/11/22 10:01:34;;;;;;;15.52;3.45;;;;;;;;;;5015339;28;20129;-81
2022/11/22 10:04:03;;;;;;;17.17;3.15;;;;;;;;;;5015451;28;20473;-82
2022/11/22 10:06:31;;;;;;;16.50;3.63;;;;;;;;;;4994533;28;20485;-82
2022/11/22 10:09:00;;;;;;;15.85;3.50;;;;;;;;;;5012487;28;20038;-82
2022/11/22 10:11:56;;;;;;;17.95;3.15;;;;;;;;;;4997007;28;20042;-82
2022/11/22 10:14:26;;;;;;;14.57;2.83;;;;;;;;;;5004217;28;20057;-81
2022/11/22 10:16:56;;;;;;;13.77;2.45;;;;;;;;;;5008656;28;20057;-81
2022/11/22 10:19:32;;;;;;;13.80;2.60;;;;;;;;;;5007101;28;20050;-82
2022/11/22 10:21:58;;;;;;;15.30;2.97;;;;;;;;;;5013678;28;20073;-82
2022/11/22 10:24:24;;;;;;;16.00;2.92;;;;;;;;;;5013728;28;20050;-82
2022/11/22 10:26:51;;;;;;;11.65;2.40;;;;;;;;;;5013823;28;20042;-81
2022/11/22 10:29:55;;;;;;;13.48;2.92;;;;;;;;;;5013353;28;20093;-82
2022/11/22 10:32:27;;;;;;;14.07;2.55;;;;;;;;;;4914036;29;20048;-82
2022/11/22 10:34:56;;;;;;;12.90;2.47;;;;;;;;;;4915979;29;20048;-82
2022/11/22 10:37:41;;;;;;;13.30;2.65;;;;;;;;;;4916211;29;20115;-82
2022/11/22 10:40:07;;;;;;;11.65;2.38;;;;;;;;;;4914748;29;20040;-81
2022/11/22 10:42:35;;;;;;;12.20;2.60;;;;;;;;;;4910785;29;20052;-82
2022/11/22 10:45:17;;;;;;;14.05;2.25;;;;;;;;;;5050146;22;20145;-71
2022/11/22 10:47:43;;;;;;;10.98;2.20;;;;;;;;;;5016984;28;20041;-72
2022/11/22 10:50:27;;;;;;;7.57;1.90;;;;;;;;;;5026722;28;20048;-72
2022/11/22 10:52:56;;;;;;;11.43;2.17;;;;;;;;;;5025707;28;20041;-72
2022/11/22 10:55:40;;;;;;;10.98;2.08;;;;;;;;;;5023730;28;20038;-71
2022/11/22 10:58:12;;;;;;;11.57;2.05;;;;;;;;;;5019462;28;20048;-72
2022/11/22 11:00:41;;;;;;;13.48;2.05;;;;;;;;;;5012979;28;20046;-72
2022/11/22 11:03:27;;;;;;;10.93;2.20;;;;;;;;;;5013707;28;20173;-72
2022/11/22 11:06:02;;;;;;;9.98;2.30;;;;;;;;;;5012482;28;20057;-71
2022/11/22 11:08:32;;;;;;;11.95;2.15;;;;;;;;;;5028674;28;20120;-71
2022/11/22 11:11:00;;;;;;;12.18;2.13;;;;;;;;;;5014250;28;20044;-72
2022/11/22 11:13:28;;;;;;;11.20;2.28;;;;;;;;;;5013505;28;20420;-72
2022/11/22 11:15:56;;;;;;;15.00;2.70;;;;;;;;;;5026460;28;20121;-72
2022/11/22 11:18:41;;;;;;;10.07;2.33;;;;;;;;;;5027928;28;20128;-72
2022/11/22 11:21:09;;;;;;;12.27;2.22;;;;;;;;;;5026566;28;20060;-72
2022/11/22 11:23:35;;;;;;;12.52;2.30;;;;;;;;;;5028728;28;20052;-72
2022/11/22 11:26:15;;;;;;;10.43;2.28;;;;;;;;;;5018426;28;20057;-72
2022/11/22 11:28:41;;;;;;;17.73;2.30;;;;;;;;;;5014470;28;20060;-71
2022/11/22 11:31:08;;;;;;;12.82;2.00;;;;;;;;;;5026626;28;20053;-72
2022/11/22 11:33:38;;;;;;;9.32;1.80;;;;;;;;;;5032857;28;20046;-72
2022/11/22 11:36:04;;;;;;;9.77;1.52;;;;;;;;;;5022650;28;20471;-72
2022/11/22 11:38:34;;;;;;;11.60;1.77;;;;;;;;;;5027490;28;20038;-72
2022/11/22 11:41:19;;;;;;;11.07;2.30;;;;;;;;;;5017142;28;20459;-72
2022/11/22 11:43:45;;;;;;;11.52;1.90;;;;;;;;;;4994303;28;20060;-72
2022/11/22 11:46:19;;;;;;;14.68;2.10;;;;;;;;;;5022558;28;20411;-72
2022/11/22 11:48:45;;;;;;;9.73;2.30;;;;;;;;;;5014016;28;20368;-73
2022/11/22 11:51:16;;;;;;;11.00;1.88;;;;;;;;;;5012599;28;20062;-72
2022/11/22 11:54:02;;;;;;;10.43;2.28;;;;;;;;;;5021923;28;20049;-71
2022/11/22 11:56:31;;;;;;;8.85;1.98;;;;;;;;;;5001275;28;20057;-72
2022/11/22 11:58:58;;;;;;;8.88;2.00;;;;;;;;;;5019368;28;20049;-73
2022/11/22 12:01:25;;;;;;;10.38;1.95;;;;;;;;;;5023666;28;20065;-71
2022/11/22 12:03:53;;;;;;;9.85;2.33;;;;;;;;;;5012542;28;20049;-72
2022/11/22 12:06:19;;;;;;;11.80;3.70;;;;;;;;;;5011988;28;20046;-72
2022/11/22 12:08:45;;;;;;;13.13;6.47;;;;;;;;;;5021121;28;20112;-71
2022/11/22 12:11:13;;;;;;;9.85;2.83;;;;;;;;;;5012510;28;20092;-71
2022/11/22 12:13:48;;;;;;;14.13;3.05;;;;;;;;;;5028432;28;20052;-72
2022/11/22 12:16:22;;;;;;;15.43;3.92;;;;;;;;;;5029842;28;20500;-72
2022/11/22 12:18:49;;;;;;;11.32;3.40;;;;;;;;;;5031660;28;20056;-72
2022/11/22 12:21:22;;;;;;;10.40;2.03;;;;;;;;;;5017613;28;20045;-72
2022/11/22 12:24:00;;;;;;;10.60;2.50;;;;;;;;;;5020518;28;20566;-72
2022/11/22 12:26:26;;;;;;;10.73;2.53;;;;;;;;;;5018246;28;20042;-72
2022/11/22 12:28:53;;;;;;;10.77;2.42;;;;;;;;;;5015092;28;20046;-71
2022/11/22 12:31:29;;;;;;;16.60;3.28;;;;;;;;;;5032011;28;20053;-72
2022/11/22 12:34:00;;;;;;;12.73;2.40;;;;;;;;;;5026732;28;20068;-72
2022/11/22 12:36:33;;;;;;;10.57;3.13;;;;;;;;;;5029441;28;20153;-72
2022/11/22 12:39:01;;;;;;;12.55;2.80;;;;;;;;;;5012170;28;20046;-72
2022/11/22 12:41:27;;;;;;;11.07;2.50;;;;;;;;;;5012410;28;20068;-71
2022/11/22 12:43:58;;;;;;;11.63;2.42;;;;;;;;;;5017674;28;20078;-72
2022/11/22 12:46:35;;;;;;;13.27;2.60;;;;;;;;;;4993709;28;20046;-72
2022/11/22 12:49:04;;;;;;;11.13;2.38;;;;;;;;;;5025658;28;20063;-72
2022/11/22 12:51:36;;;;;;;10.57;2.63;;;;;;;;;;5030942;28;20041;-73
2022/11/22 12:54:04;;;;;;;10.75;2.75;;;;;;;;;;5012184;28;20038;-72
2022/11/22 12:56:33;;;;;;;12.68;2.88;;;;;;;;;;5012055;28;20067;-72
2022/11/22 12:59:02;;;;;;;10.93;2.47;;;;;;;;;;5012096;28;20095;-72
2022/11/22 13:01:29;;;;;;;11.35;2.70;;;;;;;;;;5024074;28;20496;-71
2022/11/22 13:04:10;;;;;;;11.13;2.22;;;;;;;;;;5031481;28;20392;-71
2022/11/22 13:06:42;;;;;;;10.30;2.60;;;;;;;;;;5023191;28;20128;-71
2022/11/22 13:09:13;;;;;;;12.95;2.53;;;;;;;;;;5012000;28;20174;-71
2022/11/22 13:11:44;;;;;;;13.55;2.70;;;;;;;;;;5012091;28;20103;-72
2022/11/22 13:14:22;;;;;;;10.45;2.35;;;;;;;;;;5011593;28;20046;-72
2022/11/22 13:16:51;;;;;;;12.07;2.55;;;;;;;;;;5018045;28;20514;-72
2022/11/22 13:19:19;;;;;;;7.88;2.15;;;;;;;;;;5031358;28;20045;-71
2022/11/22 13:22:05;;;;;;;8.98;2.13;;;;;;;;;;5025058;28;20045;-71
2022/11/22 13:24:54;;;;;;;7.07;1.77;;;;;;;;;;5035557;28;20131;-72
2022/11/22 13:27:25;;;;;;;7.45;2.08;;;;;;;;;;4935423;29;20055;-72
2022/11/22 13:29:54;;;;;;;9.68;3.92;;;;;;;;;;4932914;29;20048;-71
2022/11/22 13:32:22;;;;;;;6.90;1.75;;;;;;;;;;4916466;29;20052;-72
2022/11/22 13:35:00;;;;;;;7.95;1.52;;;;;;;;;;4916701;29;20534;-71
2022/11/22 13:37:28;;;;;;;7.07;1.63;;;;;;;;;;4932893;29;20054;-72
2022/11/22 13:39:54;;;;;;;6.38;1.60;;;;;;;;;;4933778;29;20517;-72
2022/11/22 13:42:23;;;;;;;8.07;1.80;;;;;;;;;;4934401;29;20126;-71
2022/11/22 13:45:09;;;;;;;6.80;2.15;;;;;;;;;;4934410;29;20434;-72
2022/11/22 13:47:39;;;;;;;7.80;2.10;;;;;;;;;;4931568;29;20503;-72
2022/11/22 13:50:24;;;;;;;7.70;1.80;;;;;;;;;;4934799;29;20048;-72
2022/11/22 13:52:51;;;;;;;5.93;1.30;;;;;;;;;;4934057;29;20054;-72
2022/11/22 13:55:26;;;;;;;8.13;1.90;;;;;;;;;;4935256;29;20055;-72
2022/11/22 13:57:52;;;;;;;7.25;1.60;;;;;;;;;;4930251;29;20047;-72
2022/11/22 14:00:20;;;;;;;7.68;1.70;;;;;;;;;;4929110;29;20059;-71
2022/11/22 14:02:50;;;;;;;7.47;1.70;;;;;;;;;;4927466;29;20055;-72
2022/11/22 14:05:33;;;;;;;7.55;1.70;;;;;;;;;;5006573;28;20053;-72
2022/11/22 14:08:00;;;;;;;8.43;1.90;;;;;;;;;;5021799;28;20053;-72
2022/11/22 14:10:32;;;;;;;8.50;1.98;;;;;;;;;;5014034;28;20049;-71
2022/11/22 14:12:58;;;;;;;;;;;;;;;;;;5032423;28;20053;-72
2022/11/22 14:15:43;;;;;;;6.82;1.95;;;;;;;;;;5015077;28;20419;-72
2022/11/22 14:18:15;;;;;;;10.25;1.80;;;;;;;;;;5014645;28;20397;-72
2022/11/22 14:21:00;;;;;;;8.70;1.98;;;;;;;;;;5025348;28;20044;-72
2022/11/22 14:23:34;;;;;;;7.65;1.80;;;;;;;;;;5021963;28;20449;-72
2022/11/22 14:26:02;;;;;;;7.47;1.65;;;;;;;;;;5015841;28;20049;-72
2022/11/22 14:28:38;;;;;;;5.97;1.70;;;;;;;;;;5015433;28;20069;-71
2022/11/22 14:31:23;;;;;;;7.40;2.00;;;;;;;;;;5033980;28;20045;-71
2022/11/22 14:34:08;;;;;;;7.35;1.85;;;;;;;;;;5022813;28;20046;-71
2022/11/22 14:36:34;;;;;;;9.10;2.00;;;;;;;;;;5020275;28;20042;-71
2022/11/22 14:39:00;;;;;;;8.95;1.98;;;;;;;;;;5024713;28;20038;-71
2022/11/22 14:41:41;;;;;;;6.35;1.73;;;;;;;;;;5014570;28;20050;-71
2022/11/22 14:44:13;;;;;;;8.02;2.00;;;;;;;;;;5013776;28;20475;-72
2022/11/22 14:46:45;;;;;;;7.65;2.00;;;;;;;;;;5027627;28;20079;-71